sensor_id;sensor_type;location;lat;lon;timestamp;temperature;humidity
33594;DHT22;19920;52.242;20.940;2022-09-09T00:10:20;13.40;99.90
33594;DHT22;19920;52.242;20.940;2022-09-09T00:21:37;13.10;99.90
33594;DHT22;19920;52.242;20.940;2022-09-09T00:24:35;13.10;99.90
33594;DHT22;19920;52.242;20.940;2022-09-09T00:27:33;13.10;99.90
33594;DHT22;19920;52.242;20.940;2022-09-09T00:33:10;13.00;99.90
33594;DHT22;19920;52.242;20.940;2022-09-09T00:35:52;13.00;99.90
33594;DHT22;19920;52.242;20.940;2022-09-09T00:38:33;12.90;99.90
33594;DHT22;19920;52.242;20.940;2022-09-09T00:44:30;13.00;99.90
33594;DHT22;19920;52.242;20.940;2022-09-09T00:50:42;12.90;99.90
33594;DHT22;19920;52.242;20.940;2022-09-09T00:58:13;12.80;99.90
33594;DHT22;19920;52.242;20.940;2022-09-09T01:10:58;12.90;99.90
33594;DHT22;19920;52.242;20.940;2022-09-09T01:13:33;12.90;99.90
33594;DHT22;19920;52.242;20.940;2022-09-09T01:16:02;12.90;99.90
33594;DHT22;19920;52.242;20.940;2022-09-09T01:18:43;12.90;99.90
33594;DHT22;19920;52.242;20.940;2022-09-09T01:21:55;12.90;99.90
33594;DHT22;19920;52.242;20.940;2022-09-09T01:27:32;12.90;99.90
33594;DHT22;19920;52.242;20.940;2022-09-09T01:29:59;12.90;99.90
33594;DHT22;19920;52.242;20.940;2022-09-09T01:37:59;12.80;99.90
33594;DHT22;19920;52.242;20.940;2022-09-09T01:40:25;12.80;99.90
33594;DHT22;19920;52.242;20.940;2022-09-09T01:42:52;12.90;99.90
33594;DHT22;19920;52.242;20.940;2022-09-09T01:45:18;12.90;99.90
33594;DHT22;19920;52.242;20.940;2022-09-09T01:47:45;12.80;99.90
33594;DHT22;19920;52.242;20.940;2022-09-09T01:50:13;12.80;99.90
33594;DHT22;19920;52.242;20.940;2022-09-09T01:52:40;12.80;99.90
33594;DHT22;19920;52.242;20.940;2022-09-09T01:55:07;12.80;99.90
33594;DHT22;19920;52.242;20.940;2022-09-09T01:57:43;12.80;99.90
33594;DHT22;19920;52.242;20.940;2022-09-09T02:00:15;12.90;99.90
33594;DHT22;19920;52.242;20.940;2022-09-09T02:03:00;12.90;99.90
33594;DHT22;19920;52.242;20.940;2022-09-09T02:08:40;12.80;99.90
33594;DHT22;19920;52.242;20.940;2022-09-09T02:11:14;12.90;99.90
33594;DHT22;19920;52.242;20.940;2022-09-09T02:13:41;13.00;99.90
33594;DHT22;19920;52.242;20.940;2022-09-09T02:19:04;13.00;99.90
33594;DHT22;19920;52.242;20.940;2022-09-09T02:21:29;12.90;99.90
33594;DHT22;19920;52.242;20.940;2022-09-09T02:23:58;12.90;99.90
33594;DHT22;19920;52.242;20.940;2022-09-09T02:26:25;12.90;99.90
33594;DHT22;19920;52.242;20.940;2022-09-09T02:28:53;12.90;99.90
33594;DHT22;19920;52.242;20.940;2022-09-09T02:31:22;12.90;99.90
33594;DHT22;19920;52.242;20.940;2022-09-09T02:33:56;13.00;99.90
33594;DHT22;19920;52.242;20.940;2022-09-09T02:36:24;13.00;99.90
33594;DHT22;19920;52.242;20.940;2022-09-09T02:38:52;12.90;99.90
33594;DHT22;19920;52.242;20.940;2022-09-09T02:41:32;12.80;99.90
33594;DHT22;19920;52.242;20.940;2022-09-09T02:43:59;12.80;99.90
33594;DHT22;19920;52.242;20.940;2022-09-09T02:51:53;12.90;99.90
33594;DHT22;19920;52.242;20.940;2022-09-09T02:54:30;12.90;99.90
33594;DHT22;19920;52.242;20.940;2022-09-09T02:59:36;12.90;99.90
33594;DHT22;19920;52.242;20.940;2022-09-09T03:02:02;12.90;99.90
33594;DHT22;19920;52.242;20.940;2022-09-09T03:04:28;12.90;99.90
33594;DHT22;19920;52.242;20.940;2022-09-09T03:06:55;12.90;99.90
33594;DHT22;19920;52.242;20.940;2022-09-09T03:09:21;13.00;99.90
33594;DHT22;19920;52.242;20.940;2022-09-09T03:11:46;13.00;99.90
33594;DHT22;19920;52.242;20.940;2022-09-09T03:14:12;13.00;99.90
33594;DHT22;19920;52.242;20.940;2022-09-09T03:16:38;12.90;99.90
33594;DHT22;19920;52.242;20.940;2022-09-09T03:19:04;12.90;99.90
33594;DHT22;19920;52.242;20.940;2022-09-09T03:21:29;13.00;99.90
33594;DHT22;19920;52.242;20.940;2022-09-09T03:23:55;13.00;99.90
33594;DHT22;19920;52.242;20.940;2022-09-09T03:26:21;12.90;99.90
33594;DHT22;19920;52.242;20.940;2022-09-09T03:28:46;13.00;99.90
33594;DHT22;19920;52.242;20.940;2022-09-09T03:31:12;13.00;99.90
33594;DHT22;19920;52.242;20.940;2022-09-09T03:33:38;12.90;99.90
33594;DHT22;19920;52.242;20.940;2022-09-09T03:36:05;12.90;99.90
33594;DHT22;19920;52.242;20.940;2022-09-09T03:38:31;13.00;99.90
33594;DHT22;19920;52.242;20.940;2022-09-09T03:40:57;12.90;99.90
33594;DHT22;19920;52.242;20.940;2022-09-09T03:43:26;12.80;99.90
33594;DHT22;19920;52.242;20.940;2022-09-09T03:45:53;12.90;99.90
33594;DHT22;19920;52.242;20.940;2022-09-09T03:48:22;12.90;99.90
33594;DHT22;19920;52.242;20.940;2022-09-09T03:50:51;12.90;99.90
33594;DHT22;19920;52.242;20.940;2022-09-09T03:53:18;12.90;99.90
33594;DHT22;19920;52.242;20.940;2022-09-09T03:55:49;12.80;99.90
33594;DHT22;19920;52.242;20.940;2022-09-09T03:58:16;12.90;99.90
33594;DHT22;19920;52.242;20.940;2022-09-09T04:00:56;12.90;99.90
33594;DHT22;19920;52.242;20.940;2022-09-09T04:03:23;12.90;99.90
33594;DHT22;19920;52.242;20.940;2022-09-09T04:05:54;12.90;99.90
33594;DHT22;19920;52.242;20.940;2022-09-09T04:08:21;13.00;99.90
33594;DHT22;19920;52.242;20.940;2022-09-09T04:10:49;13.00;99.90
33594;DHT22;19920;52.242;20.940;2022-09-09T04:13:16;12.90;99.90
33594;DHT22;19920;52.242;20.940;2022-09-09T04:15:42;13.00;99.90
33594;DHT22;19920;52.242;20.940;2022-09-09T04:18:09;13.00;99.90
33594;DHT22;19920;52.242;20.940;2022-09-09T04:20:34;13.00;99.90
33594;DHT22;19920;52.242;20.940;2022-09-09T04:23:01;13.00;99.90
33594;DHT22;19920;52.242;20.940;2022-09-09T04:25:26;13.00;99.90
33594;DHT22;19920;52.242;20.940;2022-09-09T04:27:56;13.10;99.90
33594;DHT22;19920;52.242;20.940;2022-09-09T04:30:23;13.20;99.90
33594;DHT22;19920;52.242;20.940;2022-09-09T04:32:49;13.20;99.90
33594;DHT22;19920;52.242;20.940;2022-09-09T04:35:15;13.20;99.90
33594;DHT22;19920;52.242;20.940;2022-09-09T04:37:41;13.20;99.90
33594;DHT22;19920;52.242;20.940;2022-09-09T04:40:07;13.10;99.90
33594;DHT22;19920;52.242;20.940;2022-09-09T04:42:38;13.10;99.90
33594;DHT22;19920;52.242;20.940;2022-09-09T04:45:05;13.10;99.90
33594;DHT22;19920;52.242;20.940;2022-09-09T04:47:32;13.10;99.90
33594;DHT22;19920;52.242;20.940;2022-09-09T04:49:58;13.00;99.90
33594;DHT22;19920;52.242;20.940;2022-09-09T04:52:23;13.10;99.90
33594;DHT22;19920;52.242;20.940;2022-09-09T04:54:49;13.10;99.90
33594;DHT22;19920;52.242;20.940;2022-09-09T04:57:15;13.00;99.90
33594;DHT22;19920;52.242;20.940;2022-09-09T04:59:40;13.10;99.90
33594;DHT22;19920;52.242;20.940;2022-09-09T05:02:06;13.10;99.90
33594;DHT22;19920;52.242;20.940;2022-09-09T05:04:32;13.00;99.90
33594;DHT22;19920;52.242;20.940;2022-09-09T05:06:58;13.10;99.90
33594;DHT22;19920;52.242;20.940;2022-09-09T05:09:24;13.10;99.90
33594;DHT22;19920;52.242;20.940;2022-09-09T05:11:50;13.10;99.90
33594;DHT22;19920;52.242;20.940;2022-09-09T05:14:17;13.10;99.90
33594;DHT22;19920;52.242;20.940;2022-09-09T05:16:44;13.10;99.90
33594;DHT22;19920;52.242;20.940;2022-09-09T05:19:10;13.20;99.90
33594;DHT22;19920;52.242;20.940;2022-09-09T05:21:36;13.20;99.90
33594;DHT22;19920;52.242;20.940;2022-09-09T05:24:02;13.20;99.90
33594;DHT22;19920;52.242;20.940;2022-09-09T05:26:28;13.30;99.90
33594;DHT22;19920;52.242;20.940;2022-09-09T05:28:55;13.30;99.90
33594;DHT22;19920;52.242;20.940;2022-09-09T05:31:21;13.30;99.90
33594;DHT22;19920;52.242;20.940;2022-09-09T05:33:47;13.30;99.90
33594;DHT22;19920;52.242;20.940;2022-09-09T05:36:19;13.30;99.90
33594;DHT22;19920;52.242;20.940;2022-09-09T05:38:46;13.30;99.90
33594;DHT22;19920;52.242;20.940;2022-09-09T05:41:12;13.30;99.90
33594;DHT22;19920;52.242;20.940;2022-09-09T05:43:38;13.30;99.90
33594;DHT22;19920;52.242;20.940;2022-09-09T05:46:06;13.30;99.90
33594;DHT22;19920;52.242;20.940;2022-09-09T05:48:34;13.30;99.90
33594;DHT22;19920;52.242;20.940;2022-09-09T05:51:00;13.30;99.90
33594;DHT22;19920;52.242;20.940;2022-09-09T05:53:27;13.30;99.90
33594;DHT22;19920;52.242;20.940;2022-09-09T05:58:33;13.40;99.90
33594;DHT22;19920;52.242;20.940;2022-09-09T06:01:03;13.50;99.90
33594;DHT22;19920;52.242;20.940;2022-09-09T06:03:29;13.50;99.90
33594;DHT22;19920;52.242;20.940;2022-09-09T06:06:05;13.50;99.90
33594;DHT22;19920;52.242;20.940;2022-09-09T06:08:33;13.60;99.90
33594;DHT22;19920;52.242;20.940;2022-09-09T06:13:32;13.50;99.90
33594;DHT22;19920;52.242;20.940;2022-09-09T06:15:58;13.50;99.90
33594;DHT22;19920;52.242;20.940;2022-09-09T06:18:25;13.60;99.90
33594;DHT22;19920;52.242;20.940;2022-09-09T06:21:01;13.60;99.90
33594;DHT22;19920;52.242;20.940;2022-09-09T06:23:30;13.60;99.90
33594;DHT22;19920;52.242;20.940;2022-09-09T06:26:06;13.70;99.90
33594;DHT22;19920;52.242;20.940;2022-09-09T06:28:33;13.70;99.90
33594;DHT22;19920;52.242;20.940;2022-09-09T06:31:00;13.70;99.90
33594;DHT22;19920;52.242;20.940;2022-09-09T06:33:30;13.70;99.90
33594;DHT22;19920;52.242;20.940;2022-09-09T06:35:56;13.90;99.90
33594;DHT22;19920;52.242;20.940;2022-09-09T06:38:22;13.90;99.90
33594;DHT22;19920;52.242;20.940;2022-09-09T06:40:55;13.90;99.90
33594;DHT22;19920;52.242;20.940;2022-09-09T06:43:22;13.90;99.90
33594;DHT22;19920;52.242;20.940;2022-09-09T06:46:02;13.80;99.90
33594;DHT22;19920;52.242;20.940;2022-09-09T06:48:28;13.90;99.90
33594;DHT22;19920;52.242;20.940;2022-09-09T06:51:14;13.90;99.90
33594;DHT22;19920;52.242;20.940;2022-09-09T06:53:41;13.90;99.90
33594;DHT22;19920;52.242;20.940;2022-09-09T06:58:45;14.00;99.90
33594;DHT22;19920;52.242;20.940;2022-09-09T07:01:13;13.90;99.90
33594;DHT22;19920;52.242;20.940;2022-09-09T07:03:40;13.90;99.90
33594;DHT22;19920;52.242;20.940;2022-09-09T07:06:07;14.00;99.90
33594;DHT22;19920;52.242;20.940;2022-09-09T07:08:34;14.10;99.90
33594;DHT22;19920;52.242;20.940;2022-09-09T07:11:04;14.00;99.90
33594;DHT22;19920;52.242;20.940;2022-09-09T07:13:30;14.10;99.90
33594;DHT22;19920;52.242;20.940;2022-09-09T07:16:07;14.10;99.90
33594;DHT22;19920;52.242;20.940;2022-09-09T07:18:33;14.10;99.90
33594;DHT22;19920;52.242;20.940;2022-09-09T07:21:00;14.10;99.90
33594;DHT22;19920;52.242;20.940;2022-09-09T07:23:27;14.00;99.90
33594;DHT22;19920;52.242;20.940;2022-09-09T07:25:53;14.10;99.90
33594;DHT22;19920;52.242;20.940;2022-09-09T07:28:23;14.10;99.90
33594;DHT22;19920;52.242;20.940;2022-09-09T07:30:59;14.10;99.90
33594;DHT22;19920;52.242;20.940;2022-09-09T07:33:28;14.10;99.90
33594;DHT22;19920;52.242;20.940;2022-09-09T07:36:10;14.20;99.90
33594;DHT22;19920;52.242;20.940;2022-09-09T07:38:49;14.30;99.90
33594;DHT22;19920;52.242;20.940;2022-09-09T07:41:22;14.20;99.90
33594;DHT22;19920;52.242;20.940;2022-09-09T07:43:49;14.30;99.90
33594;DHT22;19920;52.242;20.940;2022-09-09T07:46:16;14.30;99.90
33594;DHT22;19920;52.242;20.940;2022-09-09T07:48:47;14.30;99.90
33594;DHT22;19920;52.242;20.940;2022-09-09T07:51:18;14.40;99.90
33594;DHT22;19920;52.242;20.940;2022-09-09T07:53:46;14.50;99.90
33594;DHT22;19920;52.242;20.940;2022-09-09T07:56:16;14.60;99.90
33594;DHT22;19920;52.242;20.940;2022-09-09T07:58:45;14.60;99.90
33594;DHT22;19920;52.242;20.940;2022-09-09T08:01:14;14.70;99.90
33594;DHT22;19920;52.242;20.940;2022-09-09T08:03:40;14.70;99.90
33594;DHT22;19920;52.242;20.940;2022-09-09T08:06:07;14.80;99.90
33594;DHT22;19920;52.242;20.940;2022-09-09T08:08:37;14.70;99.90
33594;DHT22;19920;52.242;20.940;2022-09-09T08:11:12;14.80;99.90
33594;DHT22;19920;52.242;20.940;2022-09-09T08:13:41;14.80;99.90
33594;DHT22;19920;52.242;20.940;2022-09-09T08:16:12;14.80;99.90
33594;DHT22;19920;52.242;20.940;2022-09-09T08:18:38;14.80;99.90
33594;DHT22;19920;52.242;20.940;2022-09-09T08:21:06;14.80;99.90
33594;DHT22;19920;52.242;20.940;2022-09-09T08:23:32;14.80;99.90
33594;DHT22;19920;52.242;20.940;2022-09-09T08:26:09;14.80;99.90
33594;DHT22;19920;52.242;20.940;2022-09-09T08:28:35;14.90;99.90
33594;DHT22;19920;52.242;20.940;2022-09-09T08:31:15;14.80;99.90
33594;DHT22;19920;52.242;20.940;2022-09-09T08:33:42;14.80;99.90
33594;DHT22;19920;52.242;20.940;2022-09-09T08:36:12;14.80;99.90
33594;DHT22;19920;52.242;20.940;2022-09-09T08:38:41;14.80;99.90
33594;DHT22;19920;52.242;20.940;2022-09-09T08:41:23;14.80;99.90
33594;DHT22;19920;52.242;20.940;2022-09-09T08:46:54;14.90;99.90
33594;DHT22;19920;52.242;20.940;2022-09-09T08:51:48;14.80;99.90
33594;DHT22;19920;52.242;20.940;2022-09-09T08:54:15;14.90;99.90
33594;DHT22;19920;52.242;20.940;2022-09-09T08:56:41;14.90;99.90
33594;DHT22;19920;52.242;20.940;2022-09-09T08:59:10;15.10;99.90
33594;DHT22;19920;52.242;20.940;2022-09-09T09:02:08;15.20;99.90
33594;DHT22;19920;52.242;20.940;2022-09-09T09:04:49;15.20;99.90
33594;DHT22;19920;52.242;20.940;2022-09-09T09:12:30;15.20;99.90
33594;DHT22;19920;52.242;20.940;2022-09-09T09:14:59;15.30;99.90
33594;DHT22;19920;52.242;20.940;2022-09-09T09:17:26;15.20;99.90
33594;DHT22;19920;52.242;20.940;2022-09-09T09:19:53;15.30;99.90
33594;DHT22;19920;52.242;20.940;2022-09-09T09:35:39;15.40;99.90
33594;DHT22;19920;52.242;20.940;2022-09-09T09:38:26;15.40;99.90
33594;DHT22;19920;52.242;20.940;2022-09-09T09:40:57;15.50;99.90
33594;DHT22;19920;52.242;20.940;2022-09-09T09:43:29;15.40;99.90
33594;DHT22;19920;52.242;20.940;2022-09-09T09:45:55;15.40;99.90
33594;DHT22;19920;52.242;20.940;2022-09-09T09:48:23;15.40;99.90
33594;DHT22;19920;52.242;20.940;2022-09-09T09:50:58;15.40;99.90
33594;DHT22;19920;52.242;20.940;2022-09-09T09:53:32;15.50;99.90
33594;DHT22;19920;52.242;20.940;2022-09-09T09:56:06;15.50;99.90
33594;DHT22;19920;52.242;20.940;2022-09-09T10:01:30;15.60;99.90
33594;DHT22;19920;52.242;20.940;2022-09-09T10:04:12;15.60;99.90
33594;DHT22;19920;52.242;20.940;2022-09-09T10:06:38;15.70;99.90
33594;DHT22;19920;52.242;20.940;2022-09-09T10:09:29;15.60;99.90
33594;DHT22;19920;52.242;20.940;2022-09-09T10:23:25;15.60;99.90
33594;DHT22;19920;52.242;20.940;2022-09-09T10:28:57;15.70;99.90
33594;DHT22;19920;52.242;20.940;2022-09-09T10:42:54;15.60;99.90
33594;DHT22;19920;52.242;20.940;2022-09-09T10:45:33;15.70;99.90
33594;DHT22;19920;52.242;20.940;2022-09-09T10:51:10;15.60;99.90
33594;DHT22;19920;52.242;20.940;2022-09-09T10:56:20;15.70;99.90
33594;DHT22;19920;52.242;20.940;2022-09-09T11:01:59;15.80;99.90
33594;DHT22;19920;52.242;20.940;2022-09-09T11:04:26;15.90;99.90
33594;DHT22;19920;52.242;20.940;2022-09-09T11:06:56;15.80;99.90
33594;DHT22;19920;52.242;20.940;2022-09-09T11:09:26;15.80;99.90
33594;DHT22;19920;52.242;20.940;2022-09-09T11:11:54;15.70;99.90
33594;DHT22;19920;52.242;20.940;2022-09-09T11:14:28;15.80;99.90
33594;DHT22;19920;52.242;20.940;2022-09-09T11:19:39;15.80;99.90
33594;DHT22;19920;52.242;20.940;2022-09-09T11:24:44;15.80;99.90
33594;DHT22;19920;52.242;20.940;2022-09-09T11:27:13;15.70;99.90
33594;DHT22;19920;52.242;20.940;2022-09-09T11:35:25;16.00;99.90
33594;DHT22;19920;52.242;20.940;2022-09-09T11:40:38;16.00;99.90
33594;DHT22;19920;52.242;20.940;2022-09-09T11:43:12;15.90;99.90
33594;DHT22;19920;52.242;20.940;2022-09-09T11:45:41;16.00;99.90
33594;DHT22;19920;52.242;20.940;2022-09-09T11:48:25;16.10;99.90
33594;DHT22;19920;52.242;20.940;2022-09-09T11:51:01;16.00;99.90
33594;DHT22;19920;52.242;20.940;2022-09-09T11:53:28;16.10;99.90
33594;DHT22;19920;52.242;20.940;2022-09-09T11:58:42;16.10;99.90
33594;DHT22;19920;52.242;20.940;2022-09-09T12:01:29;16.10;99.90
33594;DHT22;19920;52.242;20.940;2022-09-09T12:06:56;16.10;99.90
33594;DHT22;19920;52.242;20.940;2022-09-09T12:09:48;16.20;99.90
33594;DHT22;19920;52.242;20.940;2022-09-09T12:17:45;16.30;99.90
33594;DHT22;19920;52.242;20.940;2022-09-09T12:33:16;16.10;99.90
33594;DHT22;19920;52.242;20.940;2022-09-09T12:35:44;16.10;99.90
33594;DHT22;19920;52.242;20.940;2022-09-09T12:38:25;16.30;99.90
33594;DHT22;19920;52.242;20.940;2022-09-09T12:40:56;16.40;99.90
33594;DHT22;19920;52.242;20.940;2022-09-09T12:43:24;16.40;99.90
33594;DHT22;19920;52.242;20.940;2022-09-09T12:45:52;16.50;99.90
33594;DHT22;19920;52.242;20.940;2022-09-09T12:48:35;16.50;99.90
33594;DHT22;19920;52.242;20.940;2022-09-09T12:51:02;16.70;99.90
33594;DHT22;19920;52.242;20.940;2022-09-09T12:53:34;16.70;99.90
33594;DHT22;19920;52.242;20.940;2022-09-09T12:56:03;16.70;99.90
33594;DHT22;19920;52.242;20.940;2022-09-09T12:58:30;16.60;99.90
33594;DHT22;19920;52.242;20.940;2022-09-09T13:01:01;16.50;99.90
33594;DHT22;19920;52.242;20.940;2022-09-09T13:03:31;16.50;99.90
33594;DHT22;19920;52.242;20.940;2022-09-09T13:06:18;16.60;99.90
33594;DHT22;19920;52.242;20.940;2022-09-09T13:08:44;16.50;99.90
33594;DHT22;19920;52.242;20.940;2022-09-09T13:11:13;16.50;99.90
33594;DHT22;19920;52.242;20.940;2022-09-09T13:13:42;16.60;99.90
33594;DHT22;19920;52.242;20.940;2022-09-09T13:16:38;16.60;99.90
33594;DHT22;19920;52.242;20.940;2022-09-09T13:19:09;16.70;99.90
33594;DHT22;19920;52.242;20.940;2022-09-09T13:21:37;16.50;99.90
33594;DHT22;19920;52.242;20.940;2022-09-09T13:24:05;16.60;99.90
33594;DHT22;19920;52.242;20.940;2022-09-09T13:26:34;16.40;99.90
33594;DHT22;19920;52.242;20.940;2022-09-09T13:29:17;16.40;99.90
33594;DHT22;19920;52.242;20.940;2022-09-09T13:31:43;16.50;99.90
33594;DHT22;19920;52.242;20.940;2022-09-09T13:34:13;16.50;99.90
33594;DHT22;19920;52.242;20.940;2022-09-09T13:36:40;16.60;99.90
33594;DHT22;19920;52.242;20.940;2022-09-09T13:39:16;16.60;99.90
33594;DHT22;19920;52.242;20.940;2022-09-09T13:41:47;16.60;99.90
33594;DHT22;19920;52.242;20.940;2022-09-09T13:44:26;16.50;99.90
33594;DHT22;19920;52.242;20.940;2022-09-09T13:49:40;16.30;99.90
33594;DHT22;19920;52.242;20.940;2022-09-09T13:52:16;16.20;99.90
33594;DHT22;19920;52.242;20.940;2022-09-09T13:54:47;16.20;99.90
33594;DHT22;19920;52.242;20.940;2022-09-09T13:57:22;16.30;99.90
33594;DHT22;19920;52.242;20.940;2022-09-09T13:59:48;16.20;99.90
33594;DHT22;19920;52.242;20.940;2022-09-09T14:02:15;16.10;99.90
33594;DHT22;19920;52.242;20.940;2022-09-09T14:04:45;16.10;99.90
33594;DHT22;19920;52.242;20.940;2022-09-09T14:07:15;16.00;99.90
33594;DHT22;19920;52.242;20.940;2022-09-09T14:09:41;15.90;99.90
33594;DHT22;19920;52.242;20.940;2022-09-09T14:12:13;15.90;99.90
33594;DHT22;19920;52.242;20.940;2022-09-09T14:14:41;15.90;99.90
33594;DHT22;19920;52.242;20.940;2022-09-09T14:17:08;15.90;99.90
33594;DHT22;19920;52.242;20.940;2022-09-09T14:19:34;15.90;99.90
33594;DHT22;19920;52.242;20.940;2022-09-09T14:21:59;16.00;99.90
33594;DHT22;19920;52.242;20.940;2022-09-09T14:24:26;16.00;99.90
33594;DHT22;19920;52.242;20.940;2022-09-09T14:26:53;15.90;99.90
33594;DHT22;19920;52.242;20.940;2022-09-09T14:29:19;16.00;99.90
33594;DHT22;19920;52.242;20.940;2022-09-09T14:31:45;15.90;99.90
33594;DHT22;19920;52.242;20.940;2022-09-09T14:34:11;16.00;99.90
33594;DHT22;19920;52.242;20.940;2022-09-09T14:36:40;16.10;99.90
33594;DHT22;19920;52.242;20.940;2022-09-09T14:39:07;16.10;99.90
33594;DHT22;19920;52.242;20.940;2022-09-09T14:41:32;16.10;99.90
33594;DHT22;19920;52.242;20.940;2022-09-09T14:43:58;16.30;99.90
33594;DHT22;19920;52.242;20.940;2022-09-09T14:46:25;16.30;99.90
33594;DHT22;19920;52.242;20.940;2022-09-09T14:48:52;16.40;99.90
33594;DHT22;19920;52.242;20.940;2022-09-09T14:51:22;16.40;99.90
33594;DHT22;19920;52.242;20.940;2022-09-09T14:53:51;16.50;99.90
33594;DHT22;19920;52.242;20.940;2022-09-09T14:56:20;16.50;99.90
33594;DHT22;19920;52.242;20.940;2022-09-09T14:58:47;16.50;99.90
33594;DHT22;19920;52.242;20.940;2022-09-09T15:01:15;16.50;99.90
33594;DHT22;19920;52.242;20.940;2022-09-09T15:03:43;16.60;99.90
33594;DHT22;19920;52.242;20.940;2022-09-09T15:06:14;16.60;99.90
33594;DHT22;19920;52.242;20.940;2022-09-09T15:08:44;16.40;99.90
33594;DHT22;19920;52.242;20.940;2022-09-09T15:11:11;16.40;99.90
33594;DHT22;19920;52.242;20.940;2022-09-09T15:13:38;16.30;99.90
33594;DHT22;19920;52.242;20.940;2022-09-09T15:16:13;16.10;99.90
33594;DHT22;19920;52.242;20.940;2022-09-09T15:18:39;16.20;99.90
33594;DHT22;19920;52.242;20.940;2022-09-09T15:21:12;16.20;99.90
33594;DHT22;19920;52.242;20.940;2022-09-09T15:23:39;16.10;99.90
33594;DHT22;19920;52.242;20.940;2022-09-09T15:26:05;16.10;99.90
33594;DHT22;19920;52.242;20.940;2022-09-09T15:28:36;16.10;99.90
33594;DHT22;19920;52.242;20.940;2022-09-09T15:31:14;16.20;99.90
33594;DHT22;19920;52.242;20.940;2022-09-09T15:33:53;16.30;99.90
33594;DHT22;19920;52.242;20.940;2022-09-09T15:36:24;16.30;99.90
33594;DHT22;19920;52.242;20.940;2022-09-09T15:38:51;16.40;99.90
33594;DHT22;19920;52.242;20.940;2022-09-09T15:41:18;16.40;99.90
33594;DHT22;19920;52.242;20.940;2022-09-09T15:43:49;16.20;99.90
33594;DHT22;19920;52.242;20.940;2022-09-09T15:46:23;16.30;99.90
33594;DHT22;19920;52.242;20.940;2022-09-09T15:48:56;16.20;99.90
33594;DHT22;19920;52.242;20.940;2022-09-09T15:51:24;16.30;99.90
33594;DHT22;19920;52.242;20.940;2022-09-09T15:53:58;16.40;99.90
33594;DHT22;19920;52.242;20.940;2022-09-09T15:56:25;16.50;99.90
33594;DHT22;19920;52.242;20.940;2022-09-09T15:58:51;16.60;99.90
33594;DHT22;19920;52.242;20.940;2022-09-09T16:01:18;16.60;99.90
33594;DHT22;19920;52.242;20.940;2022-09-09T16:03:45;16.50;99.90
33594;DHT22;19920;52.242;20.940;2022-09-09T16:06:17;16.60;99.90
33594;DHT22;19920;52.242;20.940;2022-09-09T16:08:44;16.50;99.90
33594;DHT22;19920;52.242;20.940;2022-09-09T16:11:13;16.40;99.90
33594;DHT22;19920;52.242;20.940;2022-09-09T16:13:43;16.30;99.90
33594;DHT22;19920;52.242;20.940;2022-09-09T16:16:11;16.20;99.90
33594;DHT22;19920;52.242;20.940;2022-09-09T16:18:41;16.10;99.90
33594;DHT22;19920;52.242;20.940;2022-09-09T16:21:07;16.10;99.90
33594;DHT22;19920;52.242;20.940;2022-09-09T16:23:36;16.10;99.90
33594;DHT22;19920;52.242;20.940;2022-09-09T16:26:02;16.10;99.90
33594;DHT22;19920;52.242;20.940;2022-09-09T16:28:28;16.00;99.90
33594;DHT22;19920;52.242;20.940;2022-09-09T16:30:54;16.10;99.90
33594;DHT22;19920;52.242;20.940;2022-09-09T16:33:20;16.00;99.90
33594;DHT22;19920;52.242;20.940;2022-09-09T16:35:45;16.00;99.90
33594;DHT22;19920;52.242;20.940;2022-09-09T16:38:11;15.90;99.90
33594;DHT22;19920;52.242;20.940;2022-09-09T16:40:37;16.00;99.90
33594;DHT22;19920;52.242;20.940;2022-09-09T16:43:04;15.90;99.90
33594;DHT22;19920;52.242;20.940;2022-09-09T16:45:31;15.90;99.90
33594;DHT22;19920;52.242;20.940;2022-09-09T16:47:58;15.80;99.90
33594;DHT22;19920;52.242;20.940;2022-09-09T16:50:24;15.80;99.90
33594;DHT22;19920;52.242;20.940;2022-09-09T16:52:51;15.80;99.90
33594;DHT22;19920;52.242;20.940;2022-09-09T16:55:17;15.80;99.90
33594;DHT22;19920;52.242;20.940;2022-09-09T16:57:43;15.80;99.90
33594;DHT22;19920;52.242;20.940;2022-09-09T17:00:09;15.70;99.90
33594;DHT22;19920;52.242;20.940;2022-09-09T17:02:35;15.70;99.90
33594;DHT22;19920;52.242;20.940;2022-09-09T17:05:00;15.70;99.90
33594;DHT22;19920;52.242;20.940;2022-09-09T17:07:26;15.60;99.90
33594;DHT22;19920;52.242;20.940;2022-09-09T17:09:52;15.50;99.90
33594;DHT22;19920;52.242;20.940;2022-09-09T17:12:19;15.50;99.90
33594;DHT22;19920;52.242;20.940;2022-09-09T17:14:46;15.30;99.90
33594;DHT22;19920;52.242;20.940;2022-09-09T17:17:12;15.30;99.90
33594;DHT22;19920;52.242;20.940;2022-09-09T17:19:38;15.20;99.90
33594;DHT22;19920;52.242;20.940;2022-09-09T17:22:03;15.20;99.90
33594;DHT22;19920;52.242;20.940;2022-09-09T17:24:29;15.30;99.90
33594;DHT22;19920;52.242;20.940;2022-09-09T17:26:55;15.30;99.90
33594;DHT22;19920;52.242;20.940;2022-09-09T17:29:21;15.20;99.90
33594;DHT22;19920;52.242;20.940;2022-09-09T17:31:47;15.20;99.90
33594;DHT22;19920;52.242;20.940;2022-09-09T17:34:13;15.20;99.90
33594;DHT22;19920;52.242;20.940;2022-09-09T17:36:38;15.20;99.90
33594;DHT22;19920;52.242;20.940;2022-09-09T17:39:06;15.30;99.90
33594;DHT22;19920;52.242;20.940;2022-09-09T17:41:34;15.30;99.90
33594;DHT22;19920;52.242;20.940;2022-09-09T17:44:00;15.30;99.90
33594;DHT22;19920;52.242;20.940;2022-09-09T17:46:28;15.30;99.90
33594;DHT22;19920;52.242;20.940;2022-09-09T17:48:59;15.30;99.90
33594;DHT22;19920;52.242;20.940;2022-09-09T17:51:27;15.30;99.90
33594;DHT22;19920;52.242;20.940;2022-09-09T17:54:00;15.20;99.90
33594;DHT22;19920;52.242;20.940;2022-09-09T17:56:28;15.20;99.90
33594;DHT22;19920;52.242;20.940;2022-09-09T17:58:56;15.20;99.90
33594;DHT22;19920;52.242;20.940;2022-09-09T18:01:29;15.10;99.90
33594;DHT22;19920;52.242;20.940;2022-09-09T18:03:56;15.10;99.90
33594;DHT22;19920;52.242;20.940;2022-09-09T18:06:31;15.10;99.90
33594;DHT22;19920;52.242;20.940;2022-09-09T18:09:00;15.20;99.90
33594;DHT22;19920;52.242;20.940;2022-09-09T18:11:30;15.10;99.90
33594;DHT22;19920;52.242;20.940;2022-09-09T18:14:01;15.10;99.90
33594;DHT22;19920;52.242;20.940;2022-09-09T18:16:30;15.10;99.90
33594;DHT22;19920;52.242;20.940;2022-09-09T18:18:57;15.00;99.90
33594;DHT22;19920;52.242;20.940;2022-09-09T18:21:23;15.10;99.90
33594;DHT22;19920;52.242;20.940;2022-09-09T18:23:50;15.00;99.90
33594;DHT22;19920;52.242;20.940;2022-09-09T18:26:23;15.10;99.90